createdAt,value
2018-08-25T00:00:04.064Z,15.41
2018-08-25T00:02:33.168Z,15.37
2018-08-25T00:05:02.360Z,15.52
2018-08-25T00:07:31.468Z,15.50
2018-08-25T00:10:00.674Z,15.43
2018-08-25T00:12:29.907Z,15.44
2018-08-25T00:14:59.034Z,15.47
2018-08-25T00:17:28.105Z,15.50
2018-08-25T00:19:57.268Z,15.43
2018-08-25T00:22:26.734Z,15.54
2018-08-25T00:24:55.852Z,15.38
2018-08-25T00:27:25.031Z,15.41
2018-08-25T00:29:54.225Z,15.48
2018-08-25T00:32:23.313Z,15.52
2018-08-25T00:34:52.441Z,15.52
2018-08-25T00:37:21.658Z,15.62
2018-08-25T00:39:50.845Z,15.40
2018-08-25T00:42:20.028Z,15.32
2018-08-25T00:44:49.147Z,15.32
2018-08-25T00:47:18.238Z,15.28
2018-08-25T00:49:47.394Z,15.30
2018-08-25T00:52:16.656Z,15.30
2018-08-25T00:54:45.960Z,15.23
2018-08-25T00:57:15.065Z,15.28
2018-08-25T00:59:44.236Z,15.44
2018-08-25T01:02:13.404Z,15.34
2018-08-25T01:04:42.617Z,15.41
2018-08-25T01:07:11.820Z,15.39
2018-08-25T01:09:40.939Z,15.33
2018-08-25T01:12:10.109Z,15.25
2018-08-25T01:14:39.221Z,15.25
2018-08-25T01:17:08.385Z,15.38
2018-08-25T01:19:37.501Z,15.25
2018-08-25T01:22:06.853Z,15.17
2018-08-25T01:24:35.973Z,15.17
2018-08-25T01:27:05.291Z,15.32
2018-08-25T01:29:34.468Z,15.16
2018-08-25T01:32:03.604Z,15.14
2018-08-25T01:34:32.705Z,15.09
2018-08-25T01:37:01.810Z,15.11
2018-08-25T01:39:31.060Z,15.07
2018-08-25T01:42:00.248Z,15.12
2018-08-25T01:44:29.376Z,15.06
2018-08-25T01:46:58.469Z,15.03
2018-08-25T01:49:27.647Z,15.02
2018-08-25T01:51:56.853Z,15.05
2018-08-25T01:54:26.025Z,15.12
2018-08-25T01:56:55.134Z,15.09
2018-08-25T01:59:24.231Z,15.05
2018-08-25T02:01:53.442Z,15.11
2018-08-25T02:04:22.549Z,15.09
2018-08-25T02:06:51.637Z,15.14
2018-08-25T02:09:20.733Z,15.10
2018-08-25T02:11:49.897Z,15.02
2018-08-25T02:14:19.124Z,15.09
2018-08-25T02:16:48.413Z,15.12
2018-08-25T02:19:17.493Z,15.13
2018-08-25T02:21:46.632Z,15.11
2018-08-25T02:24:15.784Z,15.18
2018-08-25T02:26:44.896Z,15.15
2018-08-25T02:29:14.145Z,15.19
2018-08-25T02:31:43.290Z,15.23
2018-08-25T02:34:12.578Z,15.28
2018-08-25T02:36:41.697Z,15.18
2018-08-25T02:39:12.677Z,15.20
2018-08-25T02:41:42.587Z,15.22
2018-08-25T02:44:11.673Z,15.22
2018-08-25T02:46:40.790Z,15.12
2018-08-25T02:49:09.933Z,15.22
2018-08-25T02:51:39.036Z,15.19
2018-08-25T02:54:08.265Z,15.17
2018-08-25T02:56:37.432Z,15.21
2018-08-25T02:59:06.540Z,15.21
2018-08-25T03:01:35.625Z,15.11
2018-08-25T03:04:04.812Z,15.17
2018-08-25T03:06:33.912Z,15.19
2018-08-25T03:09:03.360Z,15.14
2018-08-25T03:11:32.505Z,15.10
2018-08-25T03:14:01.685Z,15.10
2018-08-25T03:16:30.796Z,15.20
2018-08-25T03:18:59.992Z,15.19
2018-08-25T03:21:29.195Z,15.18
2018-08-25T03:23:58.294Z,15.19
2018-08-25T03:26:27.558Z,15.18
2018-08-25T03:28:56.643Z,15.23
2018-08-25T03:31:25.744Z,15.19
2018-08-25T03:33:54.860Z,15.20
2018-08-25T03:36:23.946Z,15.12
2018-08-25T03:38:53.029Z,15.17
2018-08-25T03:41:22.163Z,15.20
2018-08-25T03:43:51.335Z,15.14
2018-08-25T03:46:20.428Z,15.16
2018-08-25T03:48:49.653Z,15.28
2018-08-25T03:51:18.745Z,15.25
2018-08-25T03:53:47.933Z,15.20
2018-08-25T03:56:17.148Z,15.21
2018-08-25T03:58:46.254Z,15.25
2018-08-25T04:01:15.341Z,15.19
2018-08-25T04:03:44.499Z,15.24
2018-08-25T04:06:13.624Z,15.28
2018-08-25T04:08:42.801Z,15.21
2018-08-25T04:11:11.912Z,15.18
2018-08-25T04:13:41.089Z,15.15
2018-08-25T04:16:10.189Z,15.10
2018-08-25T04:18:39.424Z,15.06
2018-08-25T04:21:08.521Z,15.06
2018-08-25T04:23:37.608Z,15.06
2018-08-25T04:26:06.832Z,14.94
2018-08-25T04:28:35.972Z,14.97
2018-08-25T04:31:05.073Z,14.99
2018-08-25T04:33:34.431Z,14.96
2018-08-25T04:36:03.492Z,15.02
2018-08-25T04:38:39.441Z,14.97
2018-08-25T04:41:08.553Z,14.91
2018-08-25T04:43:37.712Z,14.95
2018-08-25T04:46:07.181Z,14.86
2018-08-25T04:48:36.317Z,14.89
2018-08-25T04:51:05.513Z,14.86
2018-08-25T04:53:34.621Z,14.84
2018-08-25T04:56:03.803Z,14.77
2018-08-25T04:58:32.901Z,14.80
2018-08-25T05:01:02.001Z,14.78
2018-08-25T05:03:31.097Z,14.83
2018-08-25T05:06:00.219Z,14.88
2018-08-25T05:08:29.384Z,14.85
2018-08-25T05:10:58.620Z,14.90
2018-08-25T05:13:27.709Z,14.84
2018-08-25T05:15:56.816Z,14.94
2018-08-25T05:18:25.979Z,14.93
2018-08-25T05:20:55.082Z,14.93
2018-08-25T05:23:24.202Z,14.97
2018-08-25T05:25:53.546Z,15.05
2018-08-25T05:28:22.644Z,15.03
2018-08-25T05:30:51.763Z,14.98
2018-08-25T05:33:20.948Z,14.99
2018-08-25T05:35:50.057Z,15.08
2018-08-25T05:38:19.148Z,15.07
2018-08-25T05:40:48.249Z,15.04
2018-08-25T05:43:17.417Z,15.07
2018-08-25T05:45:46.537Z,15.10
2018-08-25T05:48:15.725Z,15.04
2018-08-25T05:50:44.910Z,15.05
2018-08-25T05:53:14.043Z,15.09
2018-08-25T05:55:43.161Z,15.11
2018-08-25T05:58:12.320Z,15.21
2018-08-25T06:00:41.535Z,15.23
2018-08-25T06:03:10.746Z,15.13
2018-08-25T06:05:39.799Z,15.18
2018-08-25T06:08:08.922Z,15.17
2018-08-25T06:10:38.013Z,15.20
2018-08-25T06:13:07.180Z,15.20
2018-08-25T06:15:36.297Z,15.20
2018-08-25T06:18:05.373Z,15.22
2018-08-25T06:20:34.665Z,15.26
2018-08-25T06:23:03.762Z,15.37
2018-08-25T06:25:32.889Z,15.57
2018-08-25T06:28:02.056Z,15.42
2018-08-25T06:30:31.196Z,15.31
2018-08-25T06:33:00.353Z,15.34
2018-08-25T06:35:29.470Z,15.38
2018-08-25T06:37:58.654Z,15.54
2018-08-25T06:40:27.756Z,15.59
2018-08-25T06:42:56.878Z,15.48
2018-08-25T06:45:25.984Z,15.43
2018-08-25T06:47:55.900Z,15.60
2018-08-25T06:50:24.979Z,15.62
2018-08-25T06:52:54.068Z,15.68
2018-08-25T06:55:23.228Z,15.71
2018-08-25T06:57:52.340Z,15.71
2018-08-25T07:00:21.551Z,15.65
2018-08-25T07:02:50.735Z,15.86
2018-08-25T07:05:19.979Z,15.79
2018-08-25T07:07:49.781Z,15.65
2018-08-25T07:10:18.965Z,15.70
2018-08-25T07:12:48.131Z,15.73
2018-08-25T07:15:17.255Z,15.69
2018-08-25T07:17:46.429Z,15.65
2018-08-25T07:20:15.557Z,15.84
2018-08-25T07:22:44.743Z,15.79
2018-08-25T07:25:13.875Z,15.82
2018-08-25T07:27:43.023Z,15.81
2018-08-25T07:30:12.133Z,15.98
2018-08-25T07:32:41.226Z,15.94
2018-08-25T07:35:10.434Z,16.12
2018-08-25T07:37:39.609Z,16.09
2018-08-25T07:40:08.705Z,16.20
2018-08-25T07:42:37.827Z,16.26
2018-08-25T07:45:07.167Z,16.25
2018-08-25T07:47:36.287Z,16.08
2018-08-25T07:50:05.989Z,16.17
2018-08-25T07:52:35.116Z,16.10
2018-08-25T07:55:04.225Z,16.28
2018-08-25T07:57:33.400Z,16.12
2018-08-25T08:00:02.617Z,16.23
2018-08-25T08:02:31.778Z,16.22
2018-08-25T08:05:00.972Z,16.28
2018-08-25T08:07:30.078Z,16.15
2018-08-25T08:09:59.168Z,16.13
2018-08-25T08:12:28.333Z,16.34
2018-08-25T08:14:57.688Z,16.29
2018-08-25T08:17:26.856Z,16.46
2018-08-25T08:19:55.997Z,16.58
2018-08-25T08:22:25.239Z,16.57
2018-08-25T08:24:54.340Z,16.62
2018-08-25T08:27:23.411Z,16.69
2018-08-25T08:29:52.545Z,16.69
2018-08-25T08:32:21.643Z,16.75
2018-08-25T08:34:50.721Z,16.84
2018-08-25T08:37:19.853Z,17.08
2018-08-25T08:39:49.081Z,17.18
2018-08-25T08:42:18.212Z,17.17
2018-08-25T08:44:47.324Z,17.00
2018-08-25T08:47:16.424Z,16.91
2018-08-25T08:49:46.908Z,16.88
2018-08-25T08:52:14.620Z,16.78
2018-08-25T08:54:43.696Z,16.95
2018-08-25T08:57:12.784Z,17.03
2018-08-25T08:59:42.562Z,17.04
2018-08-25T09:02:11.641Z,17.19
2018-08-25T09:04:40.716Z,17.29
2018-08-25T09:07:09.897Z,17.46
2018-08-25T09:09:39.079Z,17.12
2018-08-25T09:12:08.180Z,17.26
2018-08-25T09:14:37.340Z,17.44
2018-08-25T09:17:06.788Z,17.55
2018-08-25T09:19:35.901Z,17.75
2018-08-25T09:22:05.080Z,17.74
2018-08-25T09:24:34.264Z,17.74
2018-08-25T09:27:03.365Z,17.63
2018-08-25T09:29:32.572Z,17.64
2018-08-25T09:32:01.824Z,17.93
2018-08-25T09:34:30.946Z,17.80
2018-08-25T09:37:00.214Z,17.80
2018-08-25T09:39:29.255Z,17.81
2018-08-25T09:41:58.346Z,17.83
2018-08-25T09:44:27.562Z,17.76
2018-08-25T09:46:56.662Z,17.60
2018-08-25T09:49:25.756Z,17.63
2018-08-25T09:51:54.943Z,17.76
2018-08-25T09:54:24.070Z,17.57
2018-08-25T09:56:53.174Z,17.43
2018-08-25T09:59:22.411Z,17.49
2018-08-25T10:01:56.759Z,17.48
2018-08-25T10:04:26.046Z,17.40
2018-08-25T10:06:55.252Z,17.51
2018-08-25T10:09:24.694Z,17.75
2018-08-25T10:11:54.062Z,17.86
2018-08-25T10:14:23.242Z,17.73
2018-08-25T10:16:53.002Z,17.61
2018-08-25T10:19:22.072Z,17.63
2018-08-25T10:21:51.144Z,17.94
2018-08-25T10:24:20.334Z,17.96
2018-08-25T10:26:49.444Z,17.76
2018-08-25T10:29:18.544Z,17.97
2018-08-25T10:31:47.676Z,17.77
2018-08-25T10:34:16.867Z,17.78
2018-08-25T10:36:45.955Z,18.07
2018-08-25T10:39:15.110Z,18.16
2018-08-25T10:41:44.356Z,18.13
2018-08-25T10:44:13.384Z,17.89
2018-08-25T10:46:42.527Z,17.92
2018-08-25T10:49:12.101Z,17.83
2018-08-25T10:51:41.237Z,17.89
2018-08-25T10:54:10.441Z,17.72
2018-08-25T10:56:39.537Z,17.84
2018-08-25T10:59:08.692Z,17.78
2018-08-25T11:01:37.871Z,17.70
2018-08-25T11:04:07.016Z,17.90
2018-08-25T11:06:36.177Z,17.85
2018-08-25T11:09:12.909Z,17.68
2018-08-25T11:11:42.051Z,17.78
2018-08-25T11:14:11.505Z,17.80
2018-08-25T11:16:40.607Z,17.68
2018-08-25T11:19:09.753Z,17.85
2018-08-25T11:21:38.933Z,17.83
2018-08-25T11:24:08.061Z,18.16
2018-08-25T11:26:37.239Z,18.31
2018-08-25T11:29:06.589Z,18.21
2018-08-25T11:31:35.649Z,18.20
2018-08-25T11:34:04.837Z,17.97
2018-08-25T11:36:33.917Z,18.15
2018-08-25T11:39:03.248Z,18.02
2018-08-25T11:41:32.421Z,18.08
2018-08-25T11:44:01.576Z,18.33
2018-08-25T11:46:30.632Z,18.51
2018-08-25T11:48:59.719Z,18.05
2018-08-25T11:51:28.801Z,18.74
2018-08-25T11:53:57.967Z,18.69
2018-08-25T11:56:27.244Z,18.80
2018-08-25T11:58:56.338Z,18.78
2018-08-25T12:01:25.436Z,19.06
2018-08-25T12:03:54.512Z,18.86
2018-08-25T12:06:23.616Z,18.84
2018-08-25T12:08:53.211Z,19.11
2018-08-25T12:11:22.404Z,18.85
2018-08-25T12:13:51.572Z,18.41
2018-08-25T12:16:20.742Z,17.94
2018-08-25T12:18:49.888Z,18.28
2018-08-25T12:21:18.974Z,18.57
2018-08-25T12:23:48.184Z,18.82
2018-08-25T12:26:17.352Z,19.13
2018-08-25T12:28:46.455Z,18.83
2018-08-25T12:31:15.564Z,17.95
2018-08-25T12:33:44.668Z,18.25
2018-08-25T12:36:13.749Z,18.22
2018-08-25T12:38:42.853Z,17.92
2018-08-25T12:41:11.942Z,17.75
2018-08-25T12:43:41.041Z,17.25
2018-08-25T12:46:10.165Z,17.07
2018-08-25T12:48:39.394Z,17.02
2018-08-25T12:51:08.533Z,16.67
2018-08-25T12:53:37.616Z,16.63
2018-08-25T12:56:06.713Z,16.48
2018-08-25T12:58:35.903Z,16.54
2018-08-25T13:01:05.067Z,16.60
2018-08-25T13:03:34.441Z,16.42
2018-08-25T13:06:03.715Z,16.22
2018-08-25T13:08:32.829Z,16.27
2018-08-25T13:11:02.192Z,16.16
2018-08-25T13:13:31.311Z,15.49
2018-08-25T13:16:00.405Z,15.81
2018-08-25T13:18:29.501Z,15.99
2018-08-25T13:20:58.580Z,15.77
2018-08-25T13:23:27.820Z,15.91
2018-08-25T13:25:56.880Z,15.79
2018-08-25T13:28:25.972Z,15.89
2018-08-25T13:30:55.228Z,15.87
2018-08-25T13:33:24.376Z,15.89
2018-08-25T13:35:53.491Z,15.76
2018-08-25T13:38:22.827Z,15.58
2018-08-25T13:40:51.973Z,15.39
2018-08-25T13:43:21.058Z,15.03
2018-08-25T13:45:50.164Z,14.90
2018-08-25T13:48:19.245Z,14.91
2018-08-25T13:50:48.342Z,15.06
2018-08-25T13:53:17.549Z,14.90
2018-08-25T13:55:46.669Z,14.80
2018-08-25T13:58:15.854Z,14.95
2018-08-25T14:00:45.041Z,14.88
2018-08-25T14:03:14.481Z,14.80
2018-08-25T14:05:43.584Z,14.98
2018-08-25T14:08:12.791Z,14.94
2018-08-25T14:10:41.925Z,14.83
2018-08-25T14:13:11.021Z,14.72
2018-08-25T14:15:40.281Z,14.66
2018-08-25T14:18:09.431Z,14.63
2018-08-25T14:20:38.631Z,14.77
2018-08-25T14:23:07.729Z,14.61
2018-08-25T14:25:36.925Z,14.53
2018-08-25T14:28:06.129Z,14.43
2018-08-25T14:30:35.321Z,14.37
2018-08-25T14:33:04.499Z,14.30
2018-08-25T14:35:33.595Z,14.34
2018-08-25T14:38:02.803Z,14.18
2018-08-25T14:40:31.905Z,14.14
2018-08-25T14:43:01.002Z,14.14
2018-08-25T14:45:30.140Z,14.06
2018-08-25T14:47:59.232Z,14.07
2018-08-25T14:50:28.445Z,14.19
2018-08-25T14:52:57.584Z,14.09
2018-08-25T14:55:26.690Z,14.10
2018-08-25T14:57:55.854Z,14.02
2018-08-25T15:00:25.002Z,13.95
2018-08-25T15:02:54.060Z,14.13
2018-08-25T15:05:23.148Z,14.11
2018-08-25T15:07:52.487Z,14.06
2018-08-25T15:10:21.636Z,14.03
2018-08-25T15:12:50.784Z,13.97
2018-08-25T15:15:20.710Z,14.07
2018-08-25T15:17:49.937Z,13.96
2018-08-25T15:20:19.040Z,13.75
2018-08-25T15:22:48.182Z,13.85
2018-08-25T15:25:17.332Z,13.73
2018-08-25T15:27:46.451Z,13.70
2018-08-25T15:30:15.622Z,13.81
2018-08-25T15:32:44.699Z,13.69
2018-08-25T15:35:13.819Z,13.61
2018-08-25T15:37:42.924Z,13.79
2018-08-25T15:40:12.043Z,13.71
2018-08-25T15:42:41.253Z,13.71
2018-08-25T15:45:10.425Z,13.67
2018-08-25T15:47:39.532Z,13.57
2018-08-25T15:50:08.633Z,13.65
2018-08-25T15:52:37.738Z,13.38
2018-08-25T15:55:07.114Z,13.43
2018-08-25T15:57:36.213Z,13.54
2018-08-25T16:00:05.747Z,13.50
2018-08-25T16:02:35.048Z,13.40
2018-08-25T16:05:04.229Z,13.48
2018-08-25T16:07:33.356Z,13.39
2018-08-25T16:10:02.445Z,13.45
2018-08-25T16:12:31.717Z,13.47
2018-08-25T16:15:00.792Z,13.52
2018-08-25T16:17:30.236Z,13.57
2018-08-25T16:19:59.579Z,13.51
2018-08-25T16:22:28.948Z,13.58
2018-08-25T16:24:58.436Z,13.52
2018-08-25T16:27:27.878Z,13.42
2018-08-25T16:29:57.044Z,13.42
2018-08-25T16:32:26.228Z,13.60
2018-08-25T16:34:55.314Z,13.40
2018-08-25T16:37:24.420Z,13.47
2018-08-25T16:39:53.518Z,13.36
2018-08-25T16:42:22.664Z,13.33
2018-08-25T16:44:51.852Z,13.42
2018-08-25T16:47:20.932Z,13.50
2018-08-25T16:49:50.060Z,13.49
2018-08-25T16:52:19.241Z,13.44
2018-08-25T16:54:48.349Z,13.28
2018-08-25T16:57:17.636Z,13.31
2018-08-25T16:59:46.726Z,13.23
2018-08-25T17:02:15.874Z,13.28
2018-08-25T17:04:45.029Z,13.23
2018-08-25T17:07:14.253Z,13.22
2018-08-25T17:09:43.401Z,13.15
2018-08-25T17:12:12.527Z,13.14
2018-08-25T17:14:41.625Z,13.19
2018-08-25T17:17:10.721Z,13.31
2018-08-25T17:19:40.065Z,13.22
2018-08-25T17:22:09.164Z,13.16
2018-08-25T17:24:38.300Z,13.13
2018-08-25T17:27:07.648Z,13.22
2018-08-25T17:29:36.849Z,13.23
2018-08-25T17:32:06.033Z,13.25
2018-08-25T17:34:35.104Z,13.23
2018-08-25T17:37:04.219Z,13.22
2018-08-25T17:39:33.396Z,13.20
2018-08-25T17:42:02.584Z,13.22
2018-08-25T17:44:31.882Z,13.14
2018-08-25T17:47:00.981Z,13.11
2018-08-25T17:49:30.916Z,13.17
2018-08-25T17:52:00.016Z,13.11
2018-08-25T17:54:29.180Z,13.17
2018-08-25T17:56:58.369Z,13.23
2018-08-25T17:59:27.417Z,13.13
2018-08-25T18:01:56.529Z,13.11
2018-08-25T18:04:25.624Z,13.15
2018-08-25T18:06:54.879Z,13.14
2018-08-25T18:09:23.960Z,13.16
2018-08-25T18:11:53.069Z,13.06
2018-08-25T18:14:22.350Z,13.08
2018-08-25T18:16:51.458Z,13.10
2018-08-25T18:19:20.658Z,13.09
2018-08-25T18:21:49.777Z,13.07
2018-08-25T18:24:19.271Z,13.11
2018-08-25T18:26:48.345Z,13.11
2018-08-25T18:29:17.461Z,13.07
2018-08-25T18:31:46.545Z,13.05
2018-08-25T18:34:16.024Z,12.96
2018-08-25T18:36:45.147Z,13.03
2018-08-25T18:39:14.797Z,13.02
2018-08-25T18:41:44.621Z,12.94
2018-08-25T18:44:14.521Z,13.02
2018-08-25T18:46:43.717Z,13.00
2018-08-25T18:49:12.869Z,12.89
2018-08-25T18:51:42.025Z,12.91
2018-08-25T18:54:11.173Z,12.90
2018-08-25T18:56:40.267Z,12.96
2018-08-25T18:59:09.373Z,12.91
2018-08-25T19:01:38.551Z,12.87
2018-08-25T19:04:07.675Z,12.81
2018-08-25T19:06:36.934Z,12.84
2018-08-25T19:09:07.497Z,12.73
2018-08-25T19:11:36.597Z,12.71
2018-08-25T19:14:05.757Z,12.77
2018-08-25T19:16:34.859Z,12.85
2018-08-25T19:19:03.954Z,12.87
2018-08-25T19:21:33.055Z,12.84
2018-08-25T19:24:02.391Z,12.88
2018-08-25T19:26:31.668Z,12.83
2018-08-25T19:29:00.875Z,12.86
2018-08-25T19:31:30.061Z,12.87
2018-08-25T19:33:59.304Z,12.77
2018-08-25T19:36:28.801Z,12.76
2018-08-25T19:38:57.937Z,12.84
2018-08-25T19:41:27.088Z,12.86
2018-08-25T19:43:56.242Z,12.82
2018-08-25T19:46:25.434Z,12.84
2018-08-25T19:48:54.531Z,12.83
2018-08-25T19:51:23.627Z,12.96
2018-08-25T19:53:52.732Z,12.92
2018-08-25T19:56:21.929Z,12.98
2018-08-25T19:58:51.305Z,12.94
2018-08-25T20:01:20.450Z,12.92
2018-08-25T20:03:49.552Z,12.94
2018-08-25T20:06:18.800Z,12.92
2018-08-25T20:08:47.918Z,12.97
2018-08-25T20:11:17.005Z,12.95
2018-08-25T20:13:46.132Z,12.94
2018-08-25T20:16:15.305Z,12.97
2018-08-25T20:18:44.401Z,12.92
2018-08-25T20:21:13.541Z,12.92
2018-08-25T20:23:42.617Z,12.89
2018-08-25T20:26:11.725Z,12.88
2018-08-25T20:28:40.965Z,12.95
2018-08-25T20:31:10.040Z,12.82
2018-08-25T20:33:39.157Z,12.79
2018-08-25T20:36:08.415Z,12.70
2018-08-25T20:38:37.577Z,12.64
2018-08-25T20:41:06.777Z,12.74
2018-08-25T20:43:35.965Z,12.67
2018-08-25T20:46:05.319Z,12.74
2018-08-25T20:48:34.340Z,12.66
2018-08-25T20:51:03.493Z,12.68
2018-08-25T20:53:32.576Z,12.89
2018-08-25T20:56:01.709Z,12.80
2018-08-25T20:58:30.801Z,12.58
2018-08-25T21:01:00.044Z,12.46
2018-08-25T21:03:28.997Z,12.30
2018-08-25T21:05:58.140Z,12.21
2018-08-25T21:08:27.238Z,12.02
2018-08-25T21:10:56.415Z,12.23
2018-08-25T21:13:25.535Z,12.19
2018-08-25T21:15:54.637Z,11.87
2018-08-25T21:18:23.721Z,11.70
2018-08-25T21:20:52.900Z,11.98
2018-08-25T21:23:22.091Z,11.95
2018-08-25T21:25:51.235Z,11.99
2018-08-25T21:28:20.400Z,12.04
2018-08-25T21:30:49.646Z,12.06
2018-08-25T21:33:18.785Z,11.82
2018-08-25T21:35:48.004Z,12.00
2018-08-25T21:38:17.093Z,11.73
2018-08-25T21:40:46.209Z,11.62
2018-08-25T21:43:15.385Z,11.81
2018-08-25T21:45:44.513Z,11.61
2018-08-25T21:48:13.681Z,11.55
2018-08-25T21:50:42.870Z,11.49
2018-08-25T21:53:11.997Z,11.52
2018-08-25T21:55:41.101Z,11.51
2018-08-25T21:58:10.180Z,11.46
2018-08-25T22:00:45.411Z,11.52
2018-08-25T22:03:14.655Z,11.54
2018-08-25T22:05:43.804Z,11.47
2018-08-25T22:08:12.973Z,11.40
2018-08-25T22:10:42.095Z,11.34
2018-08-25T22:13:11.194Z,11.35
2018-08-25T22:15:40.280Z,11.43
2018-08-25T22:18:09.361Z,11.42
2018-08-25T22:20:38.609Z,11.40
2018-08-25T22:23:07.689Z,11.47
2018-08-25T22:25:36.801Z,11.43
2018-08-25T22:28:05.917Z,11.41
2018-08-25T22:30:35.045Z,11.51
2018-08-25T22:33:04.129Z,11.53
2018-08-25T22:35:33.233Z,11.52
2018-08-25T22:38:02.322Z,11.47
2018-08-25T22:40:31.423Z,11.44
2018-08-25T22:43:00.622Z,11.50
2018-08-25T22:45:29.929Z,11.58
2018-08-25T22:47:59.120Z,11.44
2018-08-25T22:50:28.229Z,11.56
2018-08-25T22:52:57.318Z,11.57
2018-08-25T22:55:26.409Z,11.49
2018-08-25T22:57:55.496Z,11.49
2018-08-25T23:00:26.420Z,11.56
2018-08-25T23:02:55.540Z,11.59
2018-08-25T23:05:25.005Z,11.63
2018-08-25T23:07:54.320Z,11.62
2018-08-25T23:10:23.460Z,11.77
2018-08-25T23:12:52.625Z,11.71
2018-08-25T23:15:21.726Z,11.75
2018-08-25T23:17:50.860Z,11.71
2018-08-25T23:20:20.022Z,11.67
2018-08-25T23:22:49.206Z,11.71
2018-08-25T23:25:18.316Z,11.70
2018-08-25T23:27:47.425Z,11.69
2018-08-25T23:30:16.644Z,11.66
2018-08-25T23:32:45.812Z,11.70
2018-08-25T23:35:14.904Z,11.71
2018-08-25T23:37:44.004Z,11.69
2018-08-25T23:40:13.187Z,11.72
2018-08-25T23:42:42.281Z,11.72
2018-08-25T23:45:11.383Z,11.77
2018-08-25T23:47:40.489Z,11.77
2018-08-25T23:50:09.595Z,11.68
2018-08-25T23:52:38.725Z,11.74
2018-08-25T23:55:08.443Z,11.69
2018-08-25T23:57:37.526Z,11.67
